Time;durP1;ratioP1;P1;durP2;ratioP2;P2;SDS_P1;SDS_P2;PMS_P1;PMS_P2;Temp;Humidity;BMP_temperature;BMP_pressure;BME280_temperature;BME280_humidity;BME280_pressure;Samples;Min_cycle;Max_cycle;Signal;HPM_P1;HPM_P2
2024/01/22 00:04:36;;;;;;;1999.90;999.90;;;;;;;7.37;100.00;100821.47;10336130;28;20560;-68
2024/01/22 00:09:39;;;;;;;1999.90;999.90;;;;;;;7.42;100.00;100770.84;10335672;28;20081;-68
2024/01/22 00:14:41;;;;;;;1999.90;999.90;;;;;;;7.38;100.00;100763.25;10336370;28;20054;-68
2024/01/22 00:19:43;;;;;;;1999.90;999.90;;;;;;;7.69;100.00;100749.69;10335465;28;20058;-68
2024/01/22 00:24:46;;;;;;;1999.90;999.90;;;;;;;7.58;100.00;100718.91;10349981;22;20047;-63
2024/01/22 00:29:48;;;;;;;1999.90;999.90;;;;;;;7.51;100.00;100727.06;10334642;28;20121;-65
2024/01/22 00:34:51;;;;;;;1999.90;999.90;;;;;;;7.61;100.00;100694.47;10334517;28;20525;-62
2024/01/22 00:39:56;;;;;;;1999.90;999.90;;;;;;;7.76;100.00;100692.91;10335399;28;20105;-61
2024/01/22 00:44:58;;;;;;;1999.90;999.90;;;;;;;7.90;100.00;100684.41;10334240;28;20094;-61
2024/01/22 00:50:01;;;;;;;1999.90;999.90;;;;;;;7.67;100.00;100669.91;10334522;28;20409;-62
2024/01/22 00:55:03;;;;;;;1999.90;999.90;;;;;;;8.02;100.00;100655.16;10334469;28;20065;-65
2024/01/22 01:00:07;;;;;;;1999.90;999.90;;;;;;;8.02;100.00;100623.88;10334184;28;20505;-64
2024/01/22 01:05:10;;;;;;;1999.90;999.90;;;;;;;8.17;100.00;100640.53;10332928;28;20050;-64
2024/01/22 01:10:12;;;;;;;1999.90;999.90;;;;;;;8.20;100.00;100661.22;10332832;28;20042;-64
2024/01/22 01:15:15;;;;;;;1999.90;999.90;;;;;;;8.26;100.00;100627.03;10334507;28;20053;-65
2024/01/22 01:20:17;;;;;;;1999.90;999.90;;;;;;;8.07;100.00;100640.16;10334319;28;20096;-65
2024/01/22 01:25:20;;;;;;;1999.90;999.90;;;;;;;8.19;100.00;100668.22;10333746;28;20062;-62
2024/01/22 01:30:22;;;;;;;1999.90;999.90;;;;;;;8.20;100.00;100658.63;10334186;28;20073;-62
2024/01/22 01:35:24;;;;;;;1999.90;999.90;;;;;;;8.49;100.00;100653.72;10332317;28;20413;-62
2024/01/22 01:40:27;;;;;;;1999.90;999.90;;;;;;;8.39;100.00;100658.56;10333306;28;20478;-62
2024/01/22 01:45:29;;;;;;;1999.90;999.90;;;;;;;8.33;100.00;100664.91;10335305;28;20129;-63
2024/01/22 01:50:34;;;;;;;1999.90;999.90;;;;;;;8.51;100.00;100647.53;10341318;28;20405;-65
2024/01/22 01:55:38;;;;;;;1999.90;999.90;;;;;;;8.55;100.00;100635.16;10341820;28;20054;-65
2024/01/22 02:00:41;;;;;;;1999.90;999.90;;;;;;;8.60;100.00;100630.53;10340306;28;20047;-65
2024/01/22 02:05:43;;;;;;;1999.90;999.90;;;;;;;8.46;100.00;100594.72;10340241;28;20065;-64
2024/01/22 02:10:50;;;;;;;1999.90;999.90;;;;;;;8.72;100.00;100582.94;10340086;28;20087;-65
2024/01/22 02:15:52;;;;;;;1999.90;999.90;;;;;;;8.92;100.00;100592.28;10339352;28;20575;-62
2024/01/22 02:20:55;;;;;;;1999.90;999.90;;;;;;;9.08;100.00;100579.25;10339082;28;20525;-62
2024/01/22 02:25:57;;;;;;;1999.90;999.90;;;;;;;9.07;100.00;100563.66;10339991;28;20116;-63
2024/01/22 02:31:01;;;;;;;1999.90;999.90;;;;;;;9.08;100.00;100552.31;10340436;28;20046;-65
2024/01/22 02:36:05;;;;;;;1999.90;999.90;;;;;;;8.80;100.00;100532.91;10340266;28;20081;-62
2024/01/22 02:41:07;;;;;;;1999.90;999.90;;;;;;;9.02;100.00;100516.06;10338901;28;20050;-63
2024/01/22 02:46:09;;;;;;;1999.90;999.90;;;;;;;9.08;100.00;100479.19;10339927;28;20126;-63
2024/01/22 02:51:12;;;;;;;1999.90;999.90;;;;;;;9.05;100.00;100459.28;10339017;28;20050;-63
2024/01/22 02:56:18;;;;;;;1999.90;999.90;;;;;;;9.21;100.00;100464.50;10338316;28;20387;-65
2024/01/22 03:01:21;;;;;;;1999.90;999.90;;;;;;;8.74;100.00;100462.75;10338099;28;20046;-65
2024/01/22 03:06:23;;;;;;;1999.90;999.90;;;;;;;8.93;100.00;100460.00;10338015;28;20050;-65
2024/01/22 03:11:26;;;;;;;1999.90;999.90;;;;;;;8.82;100.00;100431.03;10338937;28;20046;-65
2024/01/22 03:16:29;;;;;;;1999.90;999.90;;;;;;;8.57;100.00;100427.16;10338696;28;20081;-65
2024/01/22 03:21:31;;;;;;;1999.90;999.90;;;;;;;8.68;100.00;100408.31;10337865;28;20401;-65
2024/01/22 03:26:34;;;;;;;1999.90;999.90;;;;;;;8.70;100.00;100430.78;10336375;28;20065;-62
2024/01/22 03:31:37;;;;;;;1999.90;999.90;;;;;;;8.63;100.00;100397.28;10338151;28;20077;-63
2024/01/22 03:36:41;;;;;;;1999.90;999.90;;;;;;;8.68;100.00;100409.13;10337264;28;20457;-65
2024/01/22 03:41:43;;;;;;;1999.90;999.90;;;;;;;8.77;100.00;100359.97;10337698;28;20050;-65
2024/01/22 03:46:45;;;;;;;1999.90;999.90;;;;;;;8.75;100.00;100401.81;10337503;28;20074;-65
2024/01/22 03:51:48;;;;;;;1999.90;999.90;;;;;;;8.81;100.00;100383.19;10337320;28;20058;-63
2024/01/22 03:56:50;;;;;;;1999.90;999.90;;;;;;;8.93;100.00;100369.44;10336367;28;20510;-63
2024/01/22 04:01:55;;;;;;;1999.90;999.90;;;;;;;8.97;100.00;100380.53;10337001;28;20081;-62
2024/01/22 04:06:57;;;;;;;1999.90;999.90;;;;;;;8.89;100.00;100378.38;10335301;28;20133;-65
2024/01/22 04:12:00;;;;;;;1999.90;999.90;;;;;;;8.83;100.00;100375.28;10336620;28;20054;-65
2024/01/22 04:17:02;;;;;;;1999.90;999.90;;;;;;;8.85;100.00;100366.41;10336368;28;20046;-65
2024/01/22 04:22:05;;;;;;;1999.90;999.90;;;;;;;8.95;100.00;100364.13;10336148;28;20050;-62
2024/01/22 04:27:08;;;;;;;1999.90;999.90;;;;;;;9.00;100.00;100379.53;10334152;28;20089;-65
2024/01/22 04:32:10;;;;;;;1999.90;999.90;;;;;;;9.02;100.00;100368.06;10334058;28;20046;-65
2024/01/22 04:37:13;;;;;;;1999.90;999.90;;;;;;;9.03;100.00;100363.72;10333868;28;20081;-65
2024/01/22 04:42:20;;;;;;;1999.90;999.90;;;;;;;9.01;100.00;100353.34;10334891;28;20482;-66
2024/01/22 04:47:23;;;;;;;1999.90;999.90;;;;;;;8.90;100.00;100353.13;10335308;28;20050;-63
2024/01/22 04:52:25;;;;;;;1999.90;999.90;;;;;;;9.05;100.00;100356.63;10333990;28;20054;-63
2024/01/22 04:57:28;;;;;;;1999.90;999.90;;;;;;;9.06;100.00;100350.44;10334305;28;20479;-63
2024/01/22 05:02:32;;;;;;;1999.90;999.90;;;;;;;9.24;100.00;100338.09;10334845;28;20078;-63
2024/01/22 05:07:34;;;;;;;1999.90;999.90;;;;;;;9.32;100.00;100320.19;10334643;28;20111;-63
2024/01/22 05:12:37;;;;;;;1999.90;999.90;;;;;;;9.19;100.00;100300.94;10333945;28;20195;-65
2024/01/22 05:17:40;;;;;;;1999.90;999.90;;;;;;;9.22;100.00;100285.09;10316906;28;20134;-65
2024/01/22 05:22:44;;;;;;;1999.90;999.90;;;;;;;9.12;100.00;100276.97;10333580;28;20066;-66
2024/01/22 05:27:47;;;;;;;1999.90;999.90;;;;;;;9.27;100.00;100301.34;10334365;28;20050;-62
2024/01/22 05:32:50;;;;;;;1999.90;999.90;;;;;;;9.54;100.00;100290.16;10334153;28;20061;-63
2024/01/22 05:37:54;;;;;;;1999.90;999.90;;;;;;;9.44;100.00;100309.00;10332875;28;20084;-65
2024/01/22 05:42:57;;;;;;;1999.90;999.90;;;;;;;9.58;100.00;100317.78;10334025;28;20064;-63
2024/01/22 05:47:59;;;;;;;1999.90;999.90;;;;;;;9.61;100.00;100325.44;10333246;28;20481;-63
2024/01/22 05:53:02;;;;;;;1999.90;999.90;;;;;;;9.70;100.00;100334.47;10333184;28;20510;-63
2024/01/22 05:58:05;;;;;;;1999.90;999.90;;;;;;;9.52;100.00;100326.84;10333061;28;20561;-63
2024/01/22 06:03:07;;;;;;;1999.90;999.90;;;;;;;9.92;100.00;100336.59;10333732;28;20088;-63
2024/01/22 06:08:10;;;;;;;1999.90;999.90;;;;;;;9.74;100.00;100330.75;10333623;28;20046;-63
2024/01/22 06:13:12;;;;;;;1999.90;999.90;;;;;;;9.95;100.00;100325.97;10333454;28;20050;-63
2024/01/22 06:18:15;;;;;;;1999.90;999.90;;;;;;;9.96;100.00;100330.28;10332748;28;20125;-63
2024/01/22 06:23:17;;;;;;;1999.90;999.90;;;;;;;10.01;100.00;100317.75;10331826;28;20134;-63
2024/01/22 06:28:20;;;;;;;1999.90;999.90;;;;;;;9.92;100.00;100315.69;10332573;28;20398;-63
2024/01/22 06:33:23;;;;;;;1999.90;999.90;;;;;;;10.09;100.00;100323.34;10338717;28;20054;-63
2024/01/22 06:38:25;;;;;;;1999.90;999.90;;;;;;;10.14;100.00;100331.72;10340186;28;20053;-63
2024/01/22 06:43:28;;;;;;;1999.90;999.90;;;;;;;10.08;100.00;100341.75;10339380;28;20606;-63
2024/01/22 06:48:30;;;;;;;1999.90;999.90;;;;;;;10.17;100.00;100339.41;10339158;28;20383;-63
2024/01/22 06:53:33;;;;;;;1999.90;999.90;;;;;;;9.96;100.00;100348.56;10339613;28;20065;-63
2024/01/22 06:58:35;;;;;;;1999.90;999.90;;;;;;;10.04;100.00;100367.25;10339376;28;20133;-63
2024/01/22 07:03:38;;;;;;;1999.90;999.90;;;;;;;10.23;100.00;100364.31;10338122;28;20058;-69
2024/01/22 07:08:40;;;;;;;1999.90;999.90;;;;;;;10.31;100.00;100345.53;10338447;28;20532;-63
2024/01/22 07:13:43;;;;;;;1999.90;999.90;;;;;;;10.31;100.00;100362.06;10338859;28;20054;-63
2024/01/22 07:18:46;;;;;;;1999.90;999.90;;;;;;;10.26;100.00;100376.38;10321482;28;20054;-64
2024/01/22 07:23:48;;;;;;;1999.90;999.90;;;;;;;10.52;100.00;100375.59;10337688;28;20089;-64
2024/01/22 07:28:51;;;;;;;1999.90;999.90;;;;;;;10.46;100.00;100362.91;10337184;28;20042;-64
2024/01/22 07:33:55;;;;;;;1999.90;999.90;;;;;;;10.57;100.00;100363.06;10338135;28;20057;-64
2024/01/22 07:38:58;;;;;;;1999.90;999.90;;;;;;;10.58;100.00;100369.97;10337822;28;20051;-64
2024/01/22 07:44:00;;;;;;;1999.90;999.90;;;;;;;10.50;100.00;100387.09;10336484;28;20085;-64
2024/01/22 07:49:03;;;;;;;1999.90;999.90;;;;;;;10.51;100.00;100397.47;10337534;28;20057;-64
2024/01/22 07:54:05;;;;;;;1999.90;999.90;;;;;;;10.59;100.00;100389.97;10337356;28;20054;-64
2024/01/22 07:59:08;;;;;;;1999.90;999.90;;;;;;;10.55;100.00;100390.25;10337086;28;20137;-64
2024/01/22 08:04:10;;;;;;;1999.90;999.90;;;;;;;10.68;100.00;100382.47;10336956;28;20054;-64
2024/01/22 08:09:13;;;;;;;1999.90;999.90;;;;;;;10.52;100.00;100385.22;10336800;28;20053;-64
2024/01/22 08:14:15;;;;;;;1999.90;999.90;;;;;;;10.45;100.00;100392.63;10336631;28;20050;-63
2024/01/22 08:19:18;;;;;;;1999.90;999.90;;;;;;;10.51;100.00;100384.38;10335670;28;20072;-64
2024/01/22 08:24:21;;;;;;;1999.90;999.90;;;;;;;10.54;100.00;100391.19;10335940;28;20058;-63
2024/01/22 08:29:24;;;;;;;1999.90;999.90;;;;;;;10.65;100.00;100401.00;10335385;28;20565;-63
2024/01/22 08:34:26;;;;;;;1999.90;999.90;;;;;;;10.42;100.00;100418.97;10335198;28;20077;-64
2024/01/22 08:39:29;;;;;;;1999.90;999.90;;;;;;;10.52;100.00;100407.03;10335058;28;20457;-64
2024/01/22 08:44:31;;;;;;;1999.90;999.90;;;;;;;10.38;100.00;100401.81;10333672;28;20489;-64
2024/01/22 08:49:33;;;;;;;1999.90;999.90;;;;;;;10.42;100.00;100405.88;10333514;28;20500;-64
2024/01/22 08:54:37;;;;;;;1999.90;999.90;;;;;;;10.51;100.00;100396.66;10332909;28;20480;-64
2024/01/22 08:59:39;;;;;;;1999.90;999.90;;;;;;;10.45;100.00;100410.09;10334291;28;20076;-64
2024/01/22 09:04:42;;;;;;;1999.90;999.90;;;;;;;10.53;100.00;100424.38;10334202;28;20046;-64
2024/01/22 09:09:44;;;;;;;1999.90;999.90;;;;;;;10.66;100.00;100444.53;10332943;28;20052;-64
2024/01/22 09:14:47;;;;;;;1999.90;999.90;;;;;;;10.62;100.00;100422.13;10334623;28;20053;-64
2024/01/22 09:19:49;;;;;;;1999.90;999.90;;;;;;;10.67;100.00;100420.06;10334370;28;20054;-64
2024/01/22 09:24:52;;;;;;;1999.90;999.90;;;;;;;10.62;100.00;100411.66;10333582;28;20524;-64
2024/01/22 09:29:55;;;;;;;1999.90;999.90;;;;;;;10.41;100.00;100402.44;10333156;28;20336;-64
2024/01/22 09:34:57;;;;;;;1999.90;999.90;;;;;;;10.53;100.00;100403.44;10334265;28;20061;-64
2024/01/22 09:40:00;;;;;;;1999.90;999.90;;;;;;;10.48;100.00;100400.28;10333994;28;20130;-64
2024/01/22 09:45:02;;;;;;;1999.90;999.90;;;;;;;10.56;100.00;100389.34;10334043;28;20050;-64
2024/01/22 09:50:06;;;;;;;1999.90;999.90;;;;;;;10.37;100.00;100407.97;10332795;28;20051;-64
2024/01/22 09:55:09;;;;;;;1999.90;999.90;;;;;;;10.22;100.00;100418.44;10316617;28;20138;-64
2024/01/22 10:00:14;;;;;;;1999.90;999.90;;;;;;;10.29;100.00;100436.34;10333016;28;20050;-64
2024/01/22 10:05:17;;;;;;;1999.90;999.90;;;;;;;10.19;100.00;100467.50;10333087;28;20072;-64
2024/01/22 10:10:21;;;;;;;1999.90;999.90;;;;;;;9.74;100.00;100540.72;10323482;28;20409;-63
2024/01/22 10:15:23;;;;;;;1999.90;999.90;;;;;;;9.16;100.00;100557.09;10341193;28;20058;-64
2024/01/22 10:20:26;;;;;;;1999.90;999.90;;;;;;;8.97;100.00;100573.78;10339151;28;20406;-63
2024/01/22 10:25:29;;;;;;;1999.90;999.90;;;;;;;9.13;100.00;100559.88;10340031;28;20062;-63
2024/01/22 10:30:32;;;;;;;1999.90;999.90;;;;;;;9.07;100.00;100548.00;10339465;28;20085;-63
2024/01/22 10:35:34;;;;;;;1999.90;999.90;;;;;;;8.92;100.00;100542.69;10338647;28;20096;-64
2024/01/22 10:40:37;;;;;;;1999.90;999.90;;;;;;;9.01;100.00;100554.41;10339500;28;20445;-63
2024/01/22 10:45:41;;;;;;;1999.90;999.90;;;;;;;8.85;100.00;100575.28;10338869;28;20100;-63
2024/01/22 10:50:43;;;;;;;1999.90;999.90;;;;;;;8.98;100.00;100588.53;10338025;28;20387;-64
2024/01/22 10:56:00;;;;;;;1999.90;999.90;;;;;;;8.89;100.00;100583.78;10338959;28;20057;-64
2024/01/22 11:01:18;;;;;;;1999.90;999.90;;;;;;;8.93;100.00;100599.22;10338257;28;20042;-63
2024/01/22 11:06:23;;;;;;;1999.90;999.90;;;;;;;9.09;100.00;100601.84;10337515;28;20446;-64
2024/01/22 11:11:27;;;;;;;1999.90;999.90;;;;;;;9.07;100.00;100614.13;10337903;28;20046;-63
2024/01/22 11:16:31;;;;;;;1999.90;999.90;;;;;;;9.32;100.00;100601.53;10337296;28;20050;-64
2024/01/22 11:21:38;;;;;;;1999.90;999.90;;;;;;;9.30;100.00;100599.81;10337419;28;20126;-63
2024/01/22 11:26:44;;;;;;;1999.90;999.90;;;;;;;9.22;100.00;100596.78;10336569;28;20061;-63
2024/01/22 11:31:49;;;;;;;1999.90;999.90;;;;;;;9.55;100.00;100595.84;10337177;28;20086;-64
2024/01/22 11:36:55;;;;;;;1999.90;999.90;;;;;;;9.68;100.00;100601.19;10337496;28;20386;-64
2024/01/22 11:41:58;;;;;;;1999.90;999.90;;;;;;;9.60;100.00;100617.34;10336761;28;20050;-64
2024/01/22 11:47:05;;;;;;;1999.90;999.90;;;;;;;9.72;100.00;100594.88;10337756;28;20062;-64
2024/01/22 11:52:18;;;;;;;1999.90;999.90;;;;;;;9.55;100.00;100613.28;10336553;28;20117;-65
2024/01/22 11:57:21;;;;;;;1999.90;999.90;;;;;;;9.94;100.00;100619.81;10335597;28;20093;-65
2024/01/22 12:02:23;;;;;;;1999.90;999.90;;;;;;;9.88;100.00;100630.63;10335813;28;20097;-65
2024/01/22 12:07:37;;;;;;;1999.90;999.90;;;;;;;9.83;100.00;100626.50;10336881;28;20054;-65
2024/01/22 12:12:39;;;;;;;1999.90;999.90;;;;;;;10.35;100.00;100634.88;10318822;28;20064;-65
2024/01/22 12:17:45;;;;;;;1999.90;999.90;;;;;;;10.01;100.00;100644.69;10336476;28;20125;-65
2024/01/22 12:22:56;;;;;;;1999.90;999.90;;;;;;;10.12;100.00;100659.75;10334170;28;20506;-65
2024/01/22 12:28:05;;;;;;;1999.90;999.90;;;;;;;10.01;100.00;100666.44;10335422;28;20065;-65
2024/01/22 12:33:22;;;;;;;1999.90;999.90;;;;;;;10.02;100.00;100662.06;10334207;28;20121;-65
2024/01/22 12:38:26;;;;;;;1999.90;999.90;;;;;;;10.10;100.00;100685.16;10348537;22;20133;-68
2024/01/22 12:43:29;;;;;;;1999.90;999.90;;;;;;;10.29;100.00;100682.31;10335013;28;20399;-68
2024/01/22 12:48:31;;;;;;;1999.90;999.90;;;;;;;10.19;99.41;100671.56;10335440;28;20093;-68
2024/01/22 12:53:34;;;;;;;1999.90;999.90;;;;;;;10.22;99.37;100698.38;10334122;28;20089;-68
2024/01/22 12:58:38;;;;;;;1999.90;999.90;;;;;;;10.08;100.00;100693.09;10335019;28;20057;-68
2024/01/22 13:03:40;;;;;;;1999.90;999.90;;;;;;;10.16;97.11;100697.91;10333225;28;20519;-68
2024/01/22 13:08:43;;;;;;;1999.90;999.90;;;;;;;10.14;94.29;100694.53;10334853;28;20046;-68
2024/01/22 13:13:45;;;;;;;1999.90;999.90;;;;;;;9.93;95.47;100723.56;10334730;28;20046;-68
2024/01/22 13:18:48;;;;;;;1999.90;999.90;;;;;;;9.78;95.24;100719.19;10334559;28;20093;-68
2024/01/22 13:23:52;;;;;;;1999.90;999.90;;;;;;;9.90;94.71;100734.22;10333844;28;20382;-68
2024/01/22 13:28:54;;;;;;;1999.90;999.90;;;;;;;9.76;90.74;100726.28;10333772;28;20387;-68
2024/01/22 13:33:57;;;;;;;1999.90;999.90;;;;;;;9.69;93.27;100724.94;10333658;28;20556;-68
2024/01/22 13:39:00;;;;;;;1999.90;999.90;;;;;;;9.74;91.12;100735.97;10334069;28;20449;-68
2024/01/22 13:44:05;;;;;;;1999.90;999.90;;;;;;;9.93;89.49;100728.78;10342405;28;20057;-68
2024/01/22 13:49:09;;;;;;;1999.90;999.90;;;;;;;9.81;89.31;100725.09;10342997;28;20130;-68
2024/01/22 13:54:11;;;;;;;1999.90;999.90;;;;;;;9.76;88.06;100745.41;10340334;28;20457;-68
2024/01/22 13:59:14;;;;;;;1999.90;999.90;;;;;;;9.72;90.03;100735.22;10340624;28;20042;-68
2024/01/22 14:04:16;;;;;;;1999.90;999.90;;;;;;;9.71;89.11;100749.22;10341539;28;20592;-68
2024/01/22 14:09:19;;;;;;;1999.90;999.90;;;;;;;9.77;85.70;100749.72;10340842;28;20532;-68
2024/01/22 14:14:21;;;;;;;1999.90;999.90;;;;;;;9.64;86.97;100748.72;10341335;28;20060;-68
2024/01/22 14:19:33;;;;;;;1999.90;999.90;;;;;;;9.89;85.65;100750.81;10340446;28;20382;-68
2024/01/22 14:24:35;;;;;;;1999.90;999.90;;;;;;;9.71;85.86;100754.44;10341186;28;20129;-68
2024/01/22 14:29:38;;;;;;;1999.90;999.90;;;;;;;9.73;84.12;100763.03;10340131;28;20100;-68
2024/01/22 14:34:40;;;;;;;1999.90;999.90;;;;;;;9.63;84.12;100773.16;10340591;28;20060;-68
2024/01/22 14:39:43;;;;;;;1999.90;999.90;;;;;;;9.60;85.03;100770.69;10338607;28;20137;-68
2024/01/22 14:44:46;;;;;;;1999.90;999.90;;;;;;;9.62;82.84;100785.38;10340212;28;20081;-68
2024/01/22 14:49:49;;;;;;;1999.90;999.90;;;;;;;9.43;84.47;100789.88;10340014;28;20057;-68
2024/01/22 14:54:51;;;;;;;1999.90;999.90;;;;;;;9.46;83.39;100772.31;10338444;28;20489;-68
2024/01/22 14:59:54;;;;;;;1999.90;999.90;;;;;;;9.34;84.03;100791.22;10338369;28;20047;-68
2024/01/22 15:04:56;;;;;;;1999.90;999.90;;;;;;;9.42;83.46;100796.06;10338273;28;20058;-68
2024/01/22 15:09:59;;;;;;;1999.90;999.90;;;;;;;9.30;84.09;100808.00;10339160;28;20109;-66
2024/01/22 15:15:03;;;;;;;1999.90;999.90;;;;;;;9.41;82.19;100799.59;10337242;28;20410;-68
2024/01/22 15:20:11;;;;;;;1999.90;999.90;;;;;;;9.36;83.76;100812.88;10338810;28;20053;-68
2024/01/22 15:25:13;;;;;;;1999.90;999.90;;;;;;;9.39;83.77;100814.50;10336849;28;20081;-68
2024/01/22 15:30:16;;;;;;;1999.90;999.90;;;;;;;9.45;81.87;100832.50;10337281;28;20046;-67
2024/01/22 15:35:18;;;;;;;1999.90;999.90;;;;;;;9.15;85.42;100835.75;10337030;28;20061;-68
2024/01/22 15:40:21;;;;;;;1999.90;999.90;;;;;;;9.51;82.27;100853.06;10337195;28;20489;-68
2024/01/22 15:45:23;;;;;;;1999.90;999.90;;;;;;;9.18;84.36;100859.09;10336720;28;20050;-68
2024/01/22 15:50:26;;;;;;;1999.90;999.90;;;;;;;9.13;85.20;100865.47;10337615;28;20050;-68
2024/01/22 15:55:29;;;;;;;1999.90;999.90;;;;;;;9.25;85.24;100859.66;10336323;28;20089;-68
2024/01/22 16:00:31;;;;;;;1999.90;999.90;;;;;;;9.22;85.62;100862.41;10335990;28;20043;-68
2024/01/22 16:05:34;;;;;;;1999.90;999.90;;;;;;;9.33;83.80;100896.69;10337034;28;20046;-68
2024/01/22 16:10:36;;;;;;;1999.90;999.90;;;;;;;9.12;85.92;100906.44;10335685;28;20050;-68
2024/01/22 16:15:39;;;;;;;1999.90;999.90;;;;;;;9.14;84.85;100906.34;10334823;28;20073;-68
2024/01/22 16:20:41;;;;;;;1999.90;999.90;;;;;;;9.01;86.23;100906.09;10335797;28;20486;-67
2024/01/22 16:25:44;;;;;;;1999.90;999.90;;;;;;;8.89;88.24;100916.25;10336300;28;20050;-68
2024/01/22 16:30:48;;;;;;;1999.90;999.90;;;;;;;9.01;85.42;100925.25;10336098;28;20445;-68
2024/01/22 16:35:51;;;;;;;1999.90;999.90;;;;;;;8.72;87.58;100937.06;10335890;28;20133;-68
2024/01/22 16:40:54;;;;;;;1999.90;999.90;;;;;;;8.61;88.48;100960.22;10333831;28;20057;-68
2024/01/22 16:45:56;;;;;;;1999.90;999.90;;;;;;;8.70;88.72;100972.84;10333765;28;20065;-68
2024/01/22 16:50:58;;;;;;;1999.90;999.90;;;;;;;8.67;88.00;100973.00;10333593;28;20056;-68
2024/01/22 16:56:04;;;;;;;1999.90;999.90;;;;;;;8.60;89.39;100984.63;10335266;28;20105;-68
2024/01/22 17:01:06;;;;;;;1999.90;999.90;;;;;;;8.61;89.02;100987.19;10334454;28;20149;-67
2024/01/22 17:06:08;;;;;;;1999.90;999.90;;;;;;;8.53;89.03;100997.97;10334923;28;20086;-68
2024/01/22 17:11:11;;;;;;;1999.90;999.90;;;;;;;8.51;88.25;101010.25;10333625;28;20108;-67
2024/01/22 17:16:14;;;;;;;1999.90;999.90;;;;;;;8.54;89.21;101019.72;10333615;28;20057;-68
2024/01/22 17:21:17;;;;;;;1999.90;999.90;;;;;;;8.40;88.69;101012.44;10333346;28;20042;-68
2024/01/22 17:26:20;;;;;;;1999.90;999.90;;;;;;;8.34;90.80;101028.38;10334475;28;20058;-68
2024/01/22 17:31:22;;;;;;;1999.90;999.90;;;;;;;8.40;90.03;101015.06;10333725;28;20454;-68
2024/01/22 17:36:24;;;;;;;1999.90;999.90;;;;;;;8.49;89.80;101027.72;10334252;28;20050;-68
2024/01/22 17:41:27;;;;;;;1999.90;999.90;;;;;;;8.57;87.78;101036.97;10333416;28;20062;-68
2024/01/22 17:46:31;;;;;;;1999.90;999.90;;;;;;;8.44;87.76;101045.34;10333426;28;20108;-67
2024/01/22 17:51:34;;;;;;;1999.90;999.90;;;;;;;8.35;90.27;101048.31;10333363;28;20544;-67
2024/01/22 17:56:39;;;;;;;1999.90;999.90;;;;;;;8.49;88.03;101053.84;10332094;28;20125;-67
2024/01/22 18:01:41;;;;;;;1999.90;999.90;;;;;;;8.57;88.49;101060.47;10333135;28;20130;-67
2024/01/22 18:06:44;;;;;;;1999.90;999.90;;;;;;;8.64;88.96;101067.09;10333541;28;20129;-67
2024/01/22 18:11:46;;;;;;;1999.90;999.90;;;;;;;8.40;90.77;101076.84;10333566;28;20054;-68
2024/01/22 18:16:50;;;;;;;1999.90;999.90;;;;;;;8.57;89.50;101086.56;10332980;28;20418;-68
2024/01/22 18:21:52;;;;;;;1999.90;999.90;;;;;;;8.53;89.27;101099.75;10333307;28;20137;-68
2024/01/22 18:26:54;;;;;;;1999.90;999.90;;;;;;;8.44;90.22;101101.91;10334690;28;20404;-68
2024/01/22 18:31:58;;;;;;;1999.90;999.90;;;;;;;8.24;90.40;101114.03;10322962;28;20409;-67
2024/01/22 18:37:01;;;;;;;1999.90;999.90;;;;;;;8.32;90.96;101130.19;10340387;28;20104;-67
2024/01/22 18:42:04;;;;;;;1999.90;999.90;;;;;;;8.34;90.56;101146.63;10339535;28;20118;-67
2024/01/22 18:47:06;;;;;;;1999.90;999.90;;;;;;;8.34;92.65;101154.47;10340057;28;20136;-67
2024/01/22 18:52:09;;;;;;;1999.90;999.90;;;;;;;8.29;93.77;101176.44;10339933;28;20056;-67
2024/01/22 18:57:11;;;;;;;1999.90;999.90;;;;;;;8.31;95.22;101157.19;10339773;28;20050;-67
2024/01/22 19:02:13;;;;;;;1999.90;999.90;;;;;;;8.30;95.64;101165.91;10337689;28;20486;-67
2024/01/22 19:07:16;;;;;;;1999.90;999.90;;;;;;;8.24;96.65;101180.97;10338251;28;20073;-68
2024/01/22 19:12:18;;;;;;;1999.90;999.90;;;;;;;8.11;96.86;101191.94;10338020;28;20046;-68
2024/01/22 19:17:21;;;;;;;1999.90;999.90;;;;;;;8.14;98.33;101194.41;10339004;28;20055;-69
2024/01/22 19:22:24;;;;;;;1999.90;999.90;;;;;;;8.21;99.17;101202.00;10338708;28;20046;-69
2024/01/22 19:27:26;;;;;;;1999.90;999.90;;;;;;;8.27;98.20;101197.38;10337948;28;20513;-69
2024/01/22 19:32:28;;;;;;;1999.90;999.90;;;;;;;8.11;99.71;101202.34;10321081;28;20050;-69
2024/01/22 19:37:31;;;;;;;1999.90;999.90;;;;;;;8.03;99.56;101208.78;10335882;28;20052;-69
2024/01/22 19:42:33;;;;;;;1999.90;999.90;;;;;;;7.88;100.00;101218.91;10337965;28;20201;-69
2024/01/22 19:47:35;;;;;;;1999.90;999.90;;;;;;;7.86;100.00;101228.56;10337815;28;20054;-69
2024/01/22 19:52:38;;;;;;;1999.90;999.90;;;;;;;7.90;100.00;101227.56;10337613;28;20054;-69
2024/01/22 19:57:40;;;;;;;1999.90;999.90;;;;;;;7.74;100.00;101248.13;10337400;28;20052;-69
2024/01/22 20:02:45;;;;;;;1999.90;999.90;;;;;;;7.83;100.00;101252.13;10335982;28;20057;-69
2024/01/22 20:07:52;;;;;;;1999.90;999.90;;;;;;;7.79;99.86;101255.78;10336435;28;20050;-69
2024/01/22 20:12:54;;;;;;;1999.90;999.90;;;;;;;7.65;100.00;101258.06;10336890;28;20084;-69
2024/01/22 20:17:57;;;;;;;1999.90;999.90;;;;;;;7.75;100.00;101252.44;10336546;28;20125;-69
2024/01/22 20:22:59;;;;;;;1999.90;999.90;;;;;;;7.64;100.00;101249.41;10335748;28;20051;-69
2024/01/22 20:28:02;;;;;;;1999.90;999.90;;;;;;;7.70;100.00;101253.50;10334461;28;20054;-69
2024/01/22 20:33:05;;;;;;;1999.90;999.90;;;;;;;7.81;99.58;101256.56;10336035;28;20046;-69
2024/01/22 20:38:07;;;;;;;1999.90;999.90;;;;;;;7.70;98.31;101243.97;10335668;28;20054;-69
2024/01/22 20:43:11;;;;;;;1999.90;999.90;;;;;;;7.51;100.00;101251.59;10335053;28;20612;-69
2024/01/22 20:48:14;;;;;;;1999.90;999.90;;;;;;;7.67;100.00;101253.66;10335212;28;20085;-69
2024/01/22 20:53:17;;;;;;;1999.90;999.90;;;;;;;7.74;100.00;101247.28;10335129;28;20046;-69
2024/01/22 20:58:19;;;;;;;1999.90;999.90;;;;;;;7.70;99.88;101245.69;10334591;28;20054;-69
2024/01/22 21:03:22;;;;;;;1999.90;999.90;;;;;;;7.84;100.00;101259.06;10335109;28;20042;-69
2024/01/22 21:08:24;;;;;;;1999.90;999.90;;;;;;;7.72;100.00;101252.56;10333708;28;20050;-69
2024/01/22 21:13:27;;;;;;;1999.90;999.90;;;;;;;7.67;100.00;101270.13;10334121;28;20537;-69
2024/01/22 21:18:30;;;;;;;1999.90;999.90;;;;;;;7.72;100.00;101289.06;10332912;28;20052;-69
2024/01/22 21:23:33;;;;;;;1999.90;999.90;;;;;;;7.76;100.00;101272.38;10334427;28;20079;-69
2024/01/22 21:28:37;;;;;;;1999.90;999.90;;;;;;;7.70;100.00;101283.06;10334416;28;20133;-69
2024/01/22 21:33:40;;;;;;;1999.90;999.90;;;;;;;7.74;100.00;101289.00;10333102;28;20061;-69
2024/01/22 21:38:42;;;;;;;1999.90;999.90;;;;;;;7.67;100.00;101292.75;10316694;28;20061;-69
2024/01/22 21:43:45;;;;;;;1999.90;999.90;;;;;;;7.63;100.00;101292.84;10334030;28;20053;-69
2024/01/22 21:48:47;;;;;;;1999.90;999.90;;;;;;;7.59;100.00;101309.50;10334011;28;20112;-69
2024/01/22 21:53:50;;;;;;;1999.90;999.90;;;;;;;7.62;100.00;101312.00;10333299;28;20093;-69
2024/01/22 21:58:53;;;;;;;1999.90;999.90;;;;;;;7.46;100.00;101320.44;10333271;28;20061;-69